Taiwan Taoyuan International Airport
RCTP : now visible

Airfield :











YOU CAN JOIN US ON...

 
LOGIN :

Register | Disclaimer

   EN    FR    IT 

 









Legend :    VFR   Marginal VFR   IFR   Intensive IFR   Very Intensive IFR
Visi :
Ceiling :
>= 8 km
>= 3000ft
5 to 8 km
1000 to 3000 ft
1500m to 5 km
500 to 1000 ft
800 to 1500m
200 to 500 ft
< 800m
< 200 ft
Symbols :   Thunderstorms  Fog  Heavy snow  Heavy precipitations  Wind > 20 kt






- Airport Elevation : 106 ft
- IATA code : TPE


RCTP - Taiwan Taoyuan International

CURRENT METAR :
  • 181700Z VRB02KT 9999 FEW015 BKN025 27/26 Q1008 NOSIG RMK A2977

EXPIRED METARs :
  • 181630Z VRB02KT 9999 FEW012 BKN020 BKN170 28/26 Q1008 NOSIG RMK A2978
  • 181600Z 03002KT 9999 FEW015 BKN025 BKN160 28/26 Q1008 NOSIG RMK A2978
  • 181530Z VRB02KT 9999 FEW015 SCT025 BKN160 28/26 Q1008 NOSIG RMK A2978
  • 181500Z VRB02KT 9999 FEW015 SCT025 BKN160 28/26 Q1008 NOSIG RMK A2979
  • 181430Z 13004KT 9999 FEW015 SCT025 BKN200 28/26 Q1008 NOSIG RMK A2978
  • 181400Z 14004KT 9999 FEW015 SCT020 BKN030 28/26 Q1008 NOSIG RMK A2979
  • 181330Z VRB01KT 9999 FEW015 SCT030 BKN060 27/26 Q1008 NOSIG RMK A2979
  • 181300Z 27002KT 9999 FEW015 SCT030 BKN060 28/27 Q1008 NOSIG RMK A2978
  • 181230Z VRB02KT 9999 FEW012 BKN025 BKN050 28/26 Q1008 NOSIG RMK A2977

TAF TAF RCTP
Valid from the 18 at 18:00 until the 20 at 00:00 UTC


181700Z 1818/1924 21005KT 9999 FEW015 BKN032
TEMPO 1818/1824 15005KT 5000 BR
BECMG 1900/1902 29008KT
TEMPO 1906/1910 12005KT 5000 SHRA FEW012 FEW015CB BKN018
BECMG 1910/1912 21005KT
TEMPO 1916/1922 15005KT
RCAA FIR / Asia



MET'MAP, your aeronautical weather chart ! - Copyright ORBIFLY December 2007 - Disclaimer

ORBIFLY MET'MAP TEAM :

Programming & Development : Alexandra Zaïnal
Original concept : Baudouin d'Aumeries
Technical & hardware support : Manuel Goepfert
Assistance : Marc-Olivier Méhu




SOURCES & CREDITS :

   NOAA       Earth
Advisory